Time;durP1;ratioP1;P1;durP2;ratioP2;P2;SDS_P1;SDS_P2;PMS_P1;PMS_P2;Temp;Humidity;BMP_temperature;BMP_pressure;BME280_temperature;BME280_humidity;BME280_pressure;Samples;Min_cycle;Max_cycle;Signal;HPM_P1;HPM_P2
2021/12/28 00:00:17;;;;;;;14.57;7.40;;;6.00;99.90;;;;;;4982782;28;20015;-82
2021/12/28 00:02:47;;;;;;;14.40;7.73;;;5.90;99.90;;;;;;4967154;29;20004;-82
2021/12/28 00:05:18;;;;;;;15.17;6.73;;;5.90;99.90;;;;;;5029595;28;20025;-82
2021/12/28 00:07:47;;;;;;;11.70;7.10;;;5.90;99.90;;;;;;5066672;22;20031;-81
2021/12/28 00:10:20;;;;;;;12.23;7.30;;;5.80;99.90;;;;;;5079490;28;20025;-81
2021/12/28 00:12:50;;;;;;;11.70;6.40;;;5.80;99.90;;;;;;5063555;28;20028;-82
2021/12/28 00:20:39;;;;;;;13.23;6.53;;;5.80;99.90;;;;;;5062440;28;20072;-81
2021/12/28 00:23:08;;;;;;;8.90;5.50;;;5.80;99.90;;;;;;5064194;28;20012;-81
2021/12/28 00:25:37;;;;;;;15.10;7.13;;;5.70;99.90;;;;;;5067200;28;19997;-81
2021/12/28 00:28:08;;;;;;;11.43;6.23;;;5.70;99.90;;;;;;5060448;28;20013;-82
2021/12/28 00:30:40;;;;;;;16.57;6.70;;;5.80;99.90;;;;;;5068666;23;20017;-81
2021/12/28 00:33:11;;;;;;;9.20;5.93;;;5.90;99.90;;;;;;5061597;28;20010;-82
2021/12/28 00:35:42;;;;;;;13.03;5.47;;;5.80;99.90;;;;;;5039333;28;20081;-81
2021/12/28 00:38:11;;;;;;;12.07;6.53;;;5.90;99.90;;;;;;5041064;28;20082;-80
2021/12/28 00:40:38;;;;;;;11.23;6.17;;;5.90;99.90;;;;;;5013747;28;20018;-82
2021/12/28 00:43:05;;;;;;;11.40;5.77;;;5.90;99.90;;;;;;5005914;28;20010;-82
2021/12/28 00:45:33;;;;;;;8.77;5.50;;;5.90;99.90;;;;;;5004937;28;20009;-81
2021/12/28 00:47:59;;;;;;;10.53;5.53;;;5.90;99.90;;;;;;5011969;28;20022;-81
2021/12/28 00:50:27;;;;;;;16.27;5.90;;;5.90;99.90;;;;;;5006136;28;20075;-81
2021/12/28 00:52:55;;;;;;;9.33;5.93;;;6.00;99.90;;;;;;5038566;28;20010;-81
2021/12/28 00:55:22;;;;;;;11.73;5.63;;;6.00;99.90;;;;;;5005513;28;20030;-84
2021/12/28 00:57:49;;;;;;;19.53;7.53;;;6.00;99.90;;;;;;5014104;28;20086;-81
2021/12/28 01:00:19;;;;;;;14.73;6.20;;;6.00;99.90;;;;;;5025778;28;20016;-81
2021/12/28 01:05:18;;;;;;;11.57;6.43;;;6.00;99.90;;;;;;5055720;28;20036;-81
2021/12/28 01:07:47;;;;;;;9.33;4.83;;;6.00;99.90;;;;;;5059122;28;20005;-82
2021/12/28 01:10:19;;;;;;;12.10;5.20;;;6.00;99.90;;;;;;5043881;28;20020;-82
2021/12/28 01:12:45;;;;;;;15.30;5.95;;;6.00;99.90;;;;;;5051729;28;19994;-81
2021/12/28 01:15:13;;;;;;;11.67;5.27;;;6.10;99.90;;;;;;5062701;28;20032;-81
2021/12/28 01:17:43;;;;;;;11.60;5.60;;;6.00;99.90;;;;;;5025136;28;20065;-81
2021/12/28 01:20:12;;;;;;;8.67;4.90;;;5.90;99.90;;;;;;5058543;28;20056;-81
2021/12/28 01:22:39;;;;;;;14.63;5.00;;;6.00;99.90;;;;;;5059852;28;20029;-81
2021/12/28 01:25:07;;;;;;;11.50;5.87;;;5.90;99.90;;;;;;5043646;28;20037;-81
2021/12/28 01:27:33;;;;;;;12.30;5.00;;;6.00;99.90;;;;;;5039490;28;20013;-82
2021/12/28 01:29:59;;;;;;;11.50;4.83;;;5.90;99.90;;;;;;5043412;28;20010;-82
2021/12/28 01:32:24;;;;;;;19.77;5.60;;;6.00;99.90;;;;;;5040522;28;20045;-81
2021/12/28 01:34:52;;;;;;;17.20;6.00;;;6.00;99.90;;;;;;5043002;28;19998;-81
2021/12/28 01:37:20;;;;;;;13.73;5.53;;;6.00;99.90;;;;;;5043587;28;20041;-81
2021/12/28 01:39:48;;;;;;;15.57;4.80;;;6.00;99.90;;;;;;5043069;28;20005;-81
2021/12/28 01:42:14;;;;;;;13.23;4.37;;;6.00;99.90;;;;;;5043203;28;20013;-82
2021/12/28 01:44:43;;;;;;;10.10;5.13;;;6.00;99.90;;;;;;5043319;28;20029;-81
2021/12/28 01:47:12;;;;;;;23.47;4.47;;;6.00;99.90;;;;;;5042972;28;20001;-82
2021/12/28 01:49:41;;;;;;;11.50;4.20;;;5.90;99.90;;;;;;5037914;28;20025;-81
2021/12/28 01:52:07;;;;;;;13.03;4.87;;;6.00;99.90;;;;;;5042748;28;20002;-82
2021/12/28 01:54:33;;;;;;;12.17;3.87;;;6.10;99.90;;;;;;5042995;28;20010;-81
2021/12/28 01:57:04;;;;;;;5.90;3.47;;;6.10;99.90;;;;;;5047863;28;19997;-81
2021/12/28 01:59:30;;;;;;;14.50;4.63;;;6.20;99.90;;;;;;5049970;28;20005;-81
2021/12/28 02:02:01;;;;;;;17.83;5.63;;;6.20;99.90;;;;;;5059707;28;20040;-81
2021/12/28 02:04:29;;;;;;;12.87;4.07;;;6.20;99.90;;;;;;5036744;28;20002;-81
2021/12/28 02:07:02;;;;;;;14.97;3.40;;;6.10;99.90;;;;;;5043309;28;20006;-82
2021/12/28 02:09:28;;;;;;;17.53;4.83;;;6.10;99.90;;;;;;5048788;28;20104;-81
2021/12/28 02:19:40;;;;;;;22.90;5.03;;;6.10;99.90;;;;;;5100157;23;20029;-81
2021/12/28 02:22:07;;;;;;;14.43;4.33;;;6.10;99.90;;;;;;5061960;28;20009;-82
2021/12/28 02:24:35;;;;;;;14.93;4.10;;;6.00;99.90;;;;;;5063020;28;20005;-82
2021/12/28 02:27:03;;;;;;;14.87;4.03;;;6.10;99.90;;;;;;5054848;28;20011;-81
2021/12/28 02:29:32;;;;;;;9.10;3.37;;;6.30;99.90;;;;;;5062787;28;20012;-82
2021/12/28 02:31:57;;;;;;;14.97;4.73;;;6.20;99.90;;;;;;5055897;28;20020;-81
2021/12/28 02:34:25;;;;;;;12.33;3.73;;;6.20;99.90;;;;;;5063069;28;20001;-81
2021/12/28 02:36:51;;;;;;;16.10;4.10;;;6.30;99.90;;;;;;5062649;28;20001;-81
2021/12/28 02:39:17;;;;;;;13.97;3.77;;;6.20;99.90;;;;;;5062597;28;20038;-80
2021/12/28 02:41:42;;;;;;;7.47;3.33;;;6.30;99.90;;;;;;5062932;28;20072;-80
2021/12/28 02:44:08;;;;;;;17.00;3.73;;;6.20;99.90;;;;;;5062356;28;20013;-81
2021/12/28 02:46:34;;;;;;;17.63;4.57;;;6.30;99.90;;;;;;5055315;28;20032;-81
2021/12/28 03:45:59;;;;;;;16.27;2.70;;;7.10;99.90;;;;;;1439020;22;20395;-79
2021/12/28 03:48:27;;;;;;;25.00;3.43;;;7.00;99.90;;;;;;5047223;28;20032;-82
2021/12/28 03:50:53;;;;;;;20.17;3.40;;;7.00;99.90;;;;;;5065111;28;20002;-82
2021/12/28 03:53:21;;;;;;;20.67;3.07;;;7.00;99.90;;;;;;5054483;28;20008;-81
2021/12/28 03:55:47;;;;;;;16.00;3.60;;;7.00;99.90;;;;;;5065435;28;19997;-82
2021/12/28 03:58:15;;;;;;;19.07;3.17;;;7.10;99.90;;;;;;5082204;28;20077;-83
2021/12/28 04:06:04;;;;;;;17.87;3.13;;;7.10;99.90;;;;;;5340698;22;20029;-80
2021/12/28 04:08:33;;;;;;;19.93;4.07;;;7.10;99.90;;;;;;5062939;28;20028;-82
2021/12/28 04:11:14;;;;;;;17.93;2.70;;;7.10;99.90;;;;;;5062884;28;20013;-81
2021/12/28 04:13:47;;;;;;;28.63;5.87;;;7.10;99.90;;;;;;5064397;28;20005;-82
2021/12/28 04:16:17;;;;;;;21.43;3.77;;;7.10;99.90;;;;;;5063220;28;20012;-81
2021/12/28 04:18:53;;;;;;;26.87;3.47;;;7.10;99.90;;;;;;5077502;28;20028;-82
2021/12/28 04:21:22;;;;;;;32.43;5.17;;;7.10;99.90;;;;;;5064999;28;20001;-82
2021/12/28 04:24:08;;;;;;;18.43;3.67;;;7.20;99.90;;;;;;5064911;28;20005;-82
2021/12/28 04:26:34;;;;;;;14.33;3.90;;;7.20;99.90;;;;;;5064559;28;19994;-82
2021/12/28 04:29:05;;;;;;;21.70;2.90;;;7.20;99.90;;;;;;5064481;28;20017;-82
2021/12/28 04:31:34;;;;;;;29.53;5.60;;;7.20;99.90;;;;;;5058636;28;20018;-82
2021/12/28 04:34:02;;;;;;;19.50;2.60;;;7.20;99.90;;;;;;5028100;28;20093;-81
2021/12/28 04:36:31;;;;;;;31.47;3.60;;;7.20;99.90;;;;;;5021081;28;20014;-82
2021/12/28 04:39:16;;;;;;;10.77;3.93;;;7.30;99.90;;;;;;5020554;28;20018;-82
2021/12/28 04:41:59;;;;;;;19.67;3.77;;;7.30;99.90;;;;;;5005130;28;20025;-82
2021/12/28 04:47:28;;;;;;;15.73;2.67;;;7.30;99.90;;;;;;5016766;28;19901;-82
2021/12/28 04:49:56;;;;;;;16.90;3.53;;;7.30;99.90;;;;;;5004855;28;20085;-81
2021/12/28 04:52:25;;;;;;;23.60;3.60;;;7.40;99.90;;;;;;5011173;28;20010;-81
2021/12/28 04:54:51;;;;;;;21.27;3.60;;;7.40;99.90;;;;;;5008938;28;20045;-82
2021/12/28 04:57:17;;;;;;;11.43;2.63;;;7.40;99.90;;;;;;4997562;28;20014;-82
2021/12/28 04:59:43;;;;;;;17.93;3.53;;;7.40;99.90;;;;;;5009154;28;20006;-82
2021/12/28 05:02:27;;;;;;;16.47;2.27;;;7.30;99.90;;;;;;5050745;28;20025;-83
2021/12/28 05:07:30;;;;;;;18.17;3.30;;;7.40;99.90;;;;;;5191810;23;20029;-80
2021/12/28 05:10:04;;;;;;;23.33;3.27;;;7.40;99.90;;;;;;5000693;28;20015;-82
2021/12/28 05:12:32;;;;;;;22.23;3.60;;;7.50;99.90;;;;;;5003352;28;20022;-82
2021/12/28 05:15:00;;;;;;;16.93;3.63;;;7.50;99.90;;;;;;4987947;28;20011;-81
2021/12/28 05:17:33;;;;;;;31.33;4.60;;;7.50;99.90;;;;;;4942732;29;20012;-81
2021/12/28 05:20:05;;;;;;;15.33;4.20;;;7.50;99.90;;;;;;4927093;29;20127;-82
2021/12/28 05:22:32;;;;;;;38.17;5.57;;;7.50;99.90;;;;;;4940176;29;20012;-82
2021/12/28 05:25:01;;;;;;;21.07;5.13;;;7.50;99.90;;;;;;4930961;29;20030;-82
2021/12/28 05:27:28;;;;;;;11.93;4.10;;;7.50;99.90;;;;;;4927100;29;20021;-82
2021/12/28 05:29:59;;;;;;;22.17;4.20;;;7.50;99.90;;;;;;4927132;29;20024;-81
2021/12/28 05:32:26;;;;;;;28.67;4.65;;;7.50;99.90;;;;;;4943068;29;20015;-82
2021/12/28 05:34:52;;;;;;;17.53;3.93;;;7.40;99.90;;;;;;4942643;29;20027;-82
2021/12/28 05:37:33;;;;;;;28.13;4.40;;;7.50;99.90;;;;;;4927017;29;20017;-82
2021/12/28 05:39:59;;;;;;;31.30;6.17;;;7.50;99.90;;;;;;4947960;29;20008;-82
2021/12/28 05:42:30;;;;;;;16.87;6.07;;;7.50;99.90;;;;;;4965019;29;20022;-82
2021/12/28 05:44:55;;;;;;;22.03;5.37;;;7.50;99.90;;;;;;4973660;28;20104;-82
2021/12/28 05:47:23;;;;;;;28.07;5.80;;;7.60;99.90;;;;;;4955012;28;20176;-82
2021/12/28 05:49:52;;;;;;;14.97;5.07;;;7.50;99.90;;;;;;5034821;28;20033;-82
2021/12/28 05:52:20;;;;;;;24.20;5.60;;;7.60;99.90;;;;;;5004252;28;20045;-81
2021/12/28 05:54:48;;;;;;;20.20;6.20;;;7.60;99.90;;;;;;4995373;28;20026;-81
2021/12/28 05:57:15;;;;;;;18.33;7.43;;;7.60;99.90;;;;;;4997381;28;20034;-82
2021/12/28 05:59:44;;;;;;;15.43;6.03;;;7.60;99.90;;;;;;4994999;28;20046;-82
2021/12/28 06:02:16;;;;;;;23.17;5.37;;;7.60;99.90;;;;;;4996784;28;20068;-81
2021/12/28 06:04:42;;;;;;;22.40;5.53;;;7.60;99.90;;;;;;4996102;28;20090;-81
2021/12/28 06:07:13;;;;;;;19.20;6.13;;;7.60;99.90;;;;;;4979215;28;20035;-81
2021/12/28 06:09:44;;;;;;;24.53;5.60;;;7.70;99.90;;;;;;4980475;28;20030;-82
2021/12/28 06:12:16;;;;;;;25.80;5.30;;;7.70;99.90;;;;;;4955363;29;20133;-82
2021/12/28 06:14:44;;;;;;;22.07;5.20;;;7.70;99.90;;;;;;4946011;29;20020;-82
2021/12/28 06:17:15;;;;;;;16.60;5.90;;;7.60;99.90;;;;;;4961414;29;20012;-82
2021/12/28 06:19:47;;;;;;;19.30;5.33;;;7.70;99.90;;;;;;4949717;29;20086;-82
2021/12/28 06:22:17;;;;;;;24.65;5.82;;;7.70;99.90;;;;;;4965116;29;20018;-82
2021/12/28 06:24:44;;;;;;;20.87;5.30;;;7.80;99.90;;;;;;4955672;29;20011;-82
2021/12/28 06:27:11;;;;;;;13.47;5.70;;;7.80;99.90;;;;;;4949279;29;20020;-82
2021/12/28 06:29:37;;;;;;;19.00;5.17;;;7.80;99.90;;;;;;4948392;29;20011;-82
2021/12/28 06:32:11;;;;;;;13.93;4.97;;;7.80;99.90;;;;;;4965468;29;20031;-82
2021/12/28 06:34:51;;;;;;;19.60;5.20;;;7.80;99.90;;;;;;4969728;28;20015;-82
2021/12/28 06:37:20;;;;;;;14.27;4.70;;;7.80;99.90;;;;;;4969238;29;20027;-82
2021/12/28 06:39:52;;;;;;;15.00;5.00;;;7.80;99.90;;;;;;4964296;29;20011;-82
2021/12/28 06:42:18;;;;;;;14.27;5.38;;;7.80;99.90;;;;;;4978390;28;20097;-82
2021/12/28 06:44:46;;;;;;;15.50;4.57;;;7.80;99.90;;;;;;4997038;28;20013;-82
2021/12/28 15:11:57;;;;;;;8.53;1.30;;;9.10;99.90;;;;;;5007170;28;20049;-81
2021/12/28 15:14:35;;;;;;;5.70;1.57;;;8.90;99.90;;;;;;4988179;28;20011;-81
2021/12/28 15:17:05;;;;;;;12.33;1.70;;;8.90;99.90;;;;;;4993024;28;20062;-81
2021/12/28 15:19:36;;;;;;;8.37;3.03;;;8.90;99.90;;;;;;4989781;28;20006;-81
2021/12/28 15:22:20;;;;;;;8.87;1.67;;;8.90;99.90;;;;;;4999712;28;20011;-81
2021/12/28 15:24:48;;;;;;;9.73;1.77;;;8.80;99.90;;;;;;4996926;28;20009;-81
2021/12/28 15:27:18;;;;;;;6.73;1.10;;;8.80;99.90;;;;;;5006411;28;20010;-81
2021/12/28 15:29:52;;;;;;;10.43;1.67;;;8.80;99.90;;;;;;4998103;28;20021;-81
2021/12/28 15:32:30;;;;;;;;;;;;;;;;;;;;;
2021/12/28 15:35:02;;;;;;;8.50;2.17;;;8.70;99.90;;;;;;5018001;28;19995;-81
2021/12/28 15:38:01;;;;;;;;;;;;;;;;;;;;;
2021/12/28 15:40:41;;;;;;;11.93;1.63;;;8.70;99.90;;;;;;5018572;28;20003;-81
2021/12/28 15:43:15;;;;;;;16.53;1.77;;;8.70;99.90;;;;;;5000563;28;20007;-82
2021/12/28 15:45:46;;;;;;;13.20;1.93;;;8.60;99.90;;;;;;4992484;28;20056;-81
2021/12/28 15:48:12;;;;;;;14.17;2.23;;;8.60;99.90;;;;;;5021155;28;20024;-80
2021/12/28 15:50:43;;;;;;;10.10;2.20;;;8.60;99.90;;;;;;5017212;28;20046;-80
2021/12/28 15:53:17;;;;;;;11.63;1.63;;;8.60;99.90;;;;;;4995317;28;20059;-81
2021/12/28 15:55:45;;;;;;;13.80;3.40;;;8.50;99.90;;;;;;4999163;28;20034;-82
2021/12/28 15:58:47;;;;;;;7.33;1.80;;;8.60;99.90;;;;;;4968091;28;20011;-81
2021/12/28 16:01:58;;;;;;;16.37;1.97;;;8.60;99.90;;;;;;4987141;28;20011;-82
2021/12/28 16:05:10;;;;;;;15.03;2.23;;;8.60;99.90;;;;;;5002116;28;19998;-82
2021/12/28 16:11:10;;;;;;;14.03;2.27;;;8.60;99.90;;;;;;5015581;28;20029;-83
2021/12/28 16:26:36;;;;;;;16.10;2.27;;;8.40;99.90;;;;;;5520174;23;20023;-82
2021/12/28 17:06:25;;;;;;;17.97;2.33;;;8.10;99.90;;;;;;5332994;23;20030;-81
2021/12/28 17:08:54;;;;;;;8.30;1.20;;;8.10;99.90;;;;;;4999204;28;20053;-80
2021/12/28 17:11:21;;;;;;;25.67;3.37;;;8.10;99.90;;;;;;4999145;28;20011;-80
2021/12/28 17:13:49;;;;;;;12.43;2.57;;;8.20;99.90;;;;;;4995364;28;21199;-81
2021/12/28 17:16:29;;;;;;;15.30;1.80;;;8.10;99.90;;;;;;4994086;28;20019;-80
2021/12/28 17:19:05;;;;;;;14.80;1.27;;;8.10;99.90;;;;;;4996882;28;20023;-80
2021/12/28 17:25:18;;;;;;;10.40;1.70;;;8.10;99.90;;;;;;5012742;28;20038;-80
2021/12/28 17:28:26;;;;;;;13.40;3.20;;;8.20;99.90;;;;;;4992779;28;20022;-80
2021/12/28 17:31:15;;;;;;;18.63;2.67;;;8.10;99.90;;;;;;4986953;28;20019;-80
2021/12/28 18:14:50;;;;;;;;;;;;;;;;;;;;;
2021/12/28 18:24:41;;;;;;;;;;;;;;;;;;;;;
2021/12/28 18:32:12;;;;;;;11.07;2.47;;;8.10;99.90;;;;;;4769573;30;20124;-78
2021/12/28 18:38:31;;;;;;;12.27;2.35;;;8.10;99.90;;;;;;4752784;30;20054;-79
2021/12/28 18:41:25;;;;;;;14.17;2.10;;;8.10;99.90;;;;;;4739670;30;20059;-78
2021/12/28 18:44:00;;;;;;;7.27;1.40;;;8.20;99.90;;;;;;4754757;30;20028;-80
2021/12/28 18:46:31;;;;;;;16.50;2.73;;;8.20;99.90;;;;;;4780477;30;20023;-79
2021/12/28 18:56:07;;;;;;;13.20;2.67;;;8.20;99.90;;;;;;4866266;29;20047;-79
2021/12/28 18:58:33;;;;;;;2.30;1.13;;;8.30;99.90;;;;;;4853631;29;20018;-79
2021/12/28 19:01:12;;;;;;;5.67;1.40;;;8.20;99.90;;;;;;4854391;29;20333;-80
2021/12/28 19:03:42;;;;;;;5.60;1.43;;;8.20;99.90;;;;;;4854989;29;20017;-80
2021/12/28 19:06:08;;;;;;;3.10;1.63;;;8.30;99.90;;;;;;4872747;29;20039;-80
2021/12/28 19:08:42;;;;;;;7.63;1.40;;;8.30;99.90;;;;;;4912338;29;20031;-79
2021/12/28 19:11:33;;;;;;;;;;;;;;;;;;;;;
2021/12/28 19:14:52;;;;;;;3.50;1.20;;;8.20;99.90;;;;;;4955973;28;20046;-80
2021/12/28 19:17:28;;;;;;;10.03;1.90;;;8.30;99.90;;;;;;5014609;28;20010;-80
2021/12/28 19:20:24;;;;;;;;;;;;;;;;;;;;;
2021/12/28 19:23:07;;;;;;;13.20;1.47;;;8.30;99.90;;;;;;5018510;28;20003;-80
2021/12/28 19:25:54;;;;;;;;;;;;;;;;;;;;;
2021/12/28 19:28:23;;;;;;;5.67;1.33;;;8.30;99.90;;;;;;5016628;28;20030;-80
2021/12/28 19:30:56;;;;;;;7.53;1.30;;;8.20;99.90;;;;;;4996789;28;20045;-80
2021/12/28 19:33:26;;;;;;;;;;;8.30;99.90;;;;;;4997815;28;20053;-80
2021/12/28 19:36:11;;;;;;;5.07;1.77;;;8.30;99.90;;;;;;4996359;28;19898;-80
2021/12/28 19:38:57;;;;;;;5.53;2.83;;;8.30;99.90;;;;;;4997828;28;20182;-79
2021/12/28 19:41:25;;;;;;;9.50;2.90;;;8.30;99.90;;;;;;4997919;28;20006;-80
2021/12/28 19:43:54;;;;;;;9.70;3.40;;;8.30;99.90;;;;;;4997454;28;20079;-80
2021/12/28 19:46:25;;;;;;;7.43;3.07;;;8.30;99.90;;;;;;4994511;28;20101;-80
2021/12/28 19:48:51;;;;;;;7.45;2.78;;;8.20;99.90;;;;;;5057235;23;20047;-79
2021/12/28 19:51:21;;;;;;;7.53;2.90;;;8.30;99.90;;;;;;4964961;29;20042;-79
2021/12/28 19:53:52;;;;;;;5.40;2.10;;;8.30;99.90;;;;;;5231419;23;20038;-81
2021/12/28 19:56:26;;;;;;;9.90;2.33;;;8.40;99.90;;;;;;4969268;28;20035;-81
2021/12/28 19:58:53;;;;;;;3.57;2.10;;;8.30;99.90;;;;;;4964998;28;20027;-79
2021/12/28 20:02:05;;;;;;;4.87;2.20;;;8.40;99.90;;;;;;4966082;28;20026;-79
2021/12/28 20:07:26;;;;;;;5.30;2.33;;;8.40;99.90;;;;;;5164106;23;20045;-79
2021/12/28 20:09:52;;;;;;;6.53;3.33;;;8.50;99.90;;;;;;4994555;28;20042;-79
2021/12/28 20:12:23;;;;;;;12.37;3.20;;;8.40;99.90;;;;;;4993595;28;20029;-78
2021/12/28 20:14:51;;;;;;;6.37;3.33;;;8.50;99.90;;;;;;4989777;28;20058;-79
2021/12/28 20:17:19;;;;;;;7.07;3.10;;;8.50;99.90;;;;;;4993679;28;20030;-79
2021/12/28 20:19:47;;;;;;;7.07;2.30;;;8.50;99.90;;;;;;4995555;28;20030;-79
2021/12/28 20:22:19;;;;;;;7.47;3.47;;;8.50;99.90;;;;;;4993972;28;20037;-79
2021/12/28 20:24:47;;;;;;;3.38;2.30;;;8.60;99.90;;;;;;4995367;28;20047;-78
2021/12/28 20:31:10;;;;;;;7.50;2.10;;;8.60;99.90;;;;;;5006083;28;20065;-81
2021/12/28 20:56:44;;;;;;;10.27;2.20;;;8.80;99.90;;;;;;5726239;23;20021;-79
2021/12/28 21:02:59;;;;;;;8.67;2.97;;;8.80;99.90;;;;;;4936481;29;20036;-79
2021/12/28 21:08:39;;;;;;;7.97;3.30;;;8.80;99.90;;;;;;4861009;29;20038;-80
2021/12/28 21:24:19;;;;;;;6.07;3.50;;;8.90;99.90;;;;;;4999996;28;20078;-81
2021/12/28 21:26:47;;;;;;;5.97;3.23;;;8.80;99.90;;;;;;5175473;23;20224;-81
2021/12/28 21:30:10;;;;;;;7.43;4.10;;;8.90;99.90;;;;;;5053341;23;20047;-80
2021/12/28 21:33:07;;;;;;;6.25;4.25;;;8.90;99.90;;;;;;4993502;28;20019;-80
2021/12/28 21:41:24;;;;;;;7.23;4.67;;;8.90;99.90;;;;;;5585293;23;20053;-81
2021/12/28 21:44:24;;;;;;;7.47;4.27;;;8.90;99.90;;;;;;5752677;23;20032;-78
2021/12/28 21:50:54;;;;;;;9.10;4.40;;;8.90;99.90;;;;;;4982605;28;20042;-81
2021/12/28 22:00:52;;;;;;;9.53;4.63;;;8.90;99.90;;;;;;4983080;28;20035;-81
2021/12/28 22:08:52;;;;;;;6.00;4.43;;;9.00;99.90;;;;;;5374561;23;20034;-80
2021/12/28 22:14:34;;;;;;;12.70;4.73;;;9.00;99.90;;;;;;4938640;29;20044;-81
2021/12/28 22:25:34;;;;;;;9.67;5.53;;;9.00;99.90;;;;;;5686631;23;20042;-80
2021/12/28 22:31:39;;;;;;;7.67;5.30;;;9.00;99.90;;;;;;4988441;28;20019;-80
2021/12/28 22:34:27;;;;;;;9.83;5.87;;;9.10;99.90;;;;;;4987513;28;20018;-80
2021/12/28 22:40:23;;;;;;;10.98;5.03;;;9.00;99.90;;;;;;4989343;28;20038;-80
2021/12/28 22:42:49;;;;;;;;;;;9.10;99.90;;;;;;4989574;28;20019;-80
2021/12/28 22:45:14;;;;;;;13.20;5.87;;;9.00;99.90;;;;;;4971062;28;19909;-80
2021/12/28 22:47:46;;;;;;;12.83;6.03;;;9.00;99.90;;;;;;4970118;28;20292;-80
2021/12/28 22:50:12;;;;;;;11.20;6.53;;;9.00;99.90;;;;;;4981587;28;20060;-79
2021/12/28 22:52:41;;;;;;;9.97;5.83;;;9.00;99.90;;;;;;4985836;28;20033;-79
2021/12/28 22:57:54;;;;;;;10.10;5.60;;;9.00;99.90;;;;;;5175463;23;20074;-79
2021/12/28 23:01:01;;;;;;;10.20;6.57;;;9.00;99.90;;;;;;5032484;23;20031;-79
2021/12/28 23:03:36;;;;;;;11.27;4.60;;;9.00;99.90;;;;;;5015399;23;20054;-80
2021/12/28 23:06:11;;;;;;;8.80;4.50;;;9.00;99.90;;;;;;5005769;28;20025;-80
2021/12/28 23:08:44;;;;;;;8.03;4.00;;;9.00;99.90;;;;;;4995940;28;20026;-81
2021/12/28 23:11:13;;;;;;;9.03;5.03;;;9.00;99.90;;;;;;4992259;28;20022;-81
2021/12/28 23:13:41;;;;;;;7.07;4.53;;;9.00;99.90;;;;;;5008541;28;20022;-80
2021/12/28 23:16:07;;;;;;;7.80;4.17;;;9.00;99.90;;;;;;4990955;28;20251;-80
2021/12/28 23:18:36;;;;;;;6.40;4.07;;;9.00;99.90;;;;;;4994579;28;20009;-80
2021/12/28 23:21:08;;;;;;;6.37;3.93;;;9.00;99.90;;;;;;4993095;28;20006;-81
2021/12/28 23:23:33;;;;;;;8.43;4.07;;;9.00;99.90;;;;;;5007245;28;20058;-81
2021/12/28 23:26:05;;;;;;;11.87;5.10;;;9.00;99.90;;;;;;4994209;28;20026;-80
2021/12/28 23:28:34;;;;;;;9.45;5.00;;;9.00;99.90;;;;;;5008204;28;20011;-80
2021/12/28 23:31:00;;;;;;;12.07;5.57;;;9.00;99.90;;;;;;4992795;28;20038;-80
2021/12/28 23:33:27;;;;;;;13.30;6.37;;;9.00;99.90;;;;;;4996346;28;20093;-79
2021/12/28 23:35:56;;;;;;;10.67;5.33;;;8.90;99.90;;;;;;4993760;28;20011;-80
2021/12/28 23:38:22;;;;;;;10.37;5.13;;;8.90;99.90;;;;;;5010851;28;20010;-79
2021/12/28 23:40:52;;;;;;;8.43;4.47;;;9.00;99.90;;;;;;4998580;28;20028;-80
2021/12/28 23:43:20;;;;;;;8.77;4.73;;;9.00;99.90;;;;;;5011122;28;20021;-80
2021/12/28 23:45:51;;;;;;;9.37;5.57;;;8.90;99.90;;;;;;4995653;28;20007;-81
2021/12/28 23:48:27;;;;;;;;;;;;;;;;;;;;;
2021/12/28 23:50:55;;;;;;;9.10;4.77;;;9.00;99.90;;;;;;5016156;28;20052;-81
2021/12/28 23:53:21;;;;;;;8.67;5.30;;;9.00;99.90;;;;;;4996246;28;20031;-80
2021/12/28 23:55:47;;;;;;;11.87;5.43;;;9.00;99.90;;;;;;5000997;28;20080;-80
2021/12/28 23:58:13;;;;;;;10.90;6.20;;;8.90;99.90;;;;;;4997615;28;20049;-80
